Time;durP1;ratioP1;P1;durP2;ratioP2;P2;SDS_P1;SDS_P2;PMS_P1;PMS_P2;Temp;Humidity;BMP_temperature;BMP_pressure;BME280_temperature;BME280_humidity;BME280_pressure;Samples;Min_cycle;Max_cycle;Signal;HPM_P1;HPM_P2
2021/11/03 00:00:13;;;;;;;19.13;13.45;;;8.10;99.90;;;;;;5011614;28;20116;-74
2021/11/03 00:02:41;;;;;;;20.27;13.02;;;8.10;99.90;;;;;;4999459;28;20438;-74
2021/11/03 00:05:08;;;;;;;19.08;13.43;;;8.10;99.90;;;;;;5019553;28;20518;-74
2021/11/03 00:07:33;;;;;;;21.05;13.00;;;8.20;99.90;;;;;;4993527;28;20022;-73
2021/11/03 00:10:02;;;;;;;20.33;13.40;;;8.20;99.90;;;;;;5006228;28;20037;-74
2021/11/03 00:12:28;;;;;;;19.38;13.15;;;8.10;99.90;;;;;;5007639;28;20041;-73
2021/11/03 00:14:53;;;;;;;21.75;13.35;;;8.20;99.90;;;;;;5002396;28;20026;-74
2021/11/03 00:17:19;;;;;;;20.75;13.02;;;8.10;99.90;;;;;;4995849;28;20050;-73
2021/11/03 00:19:45;;;;;;;19.42;12.20;;;8.10;99.90;;;;;;5017429;28;20492;-74
2021/11/03 00:22:12;;;;;;;19.52;12.02;;;8.10;99.90;;;;;;5013684;28;20034;-74
2021/11/03 00:24:38;;;;;;;18.25;12.00;;;8.10;99.90;;;;;;5001228;28;20487;-74
2021/11/03 00:27:04;;;;;;;24.50;13.38;;;8.10;99.90;;;;;;5014387;28;20120;-74
2021/11/03 00:29:29;;;;;;;18.40;12.38;;;8.10;99.90;;;;;;5018212;28;20029;-73
2021/11/03 00:31:55;;;;;;;18.08;11.82;;;8.10;99.90;;;;;;5014880;28;20145;-74
2021/11/03 00:34:21;;;;;;;18.52;12.43;;;8.10;99.90;;;;;;5004387;28;20029;-73
2021/11/03 00:36:46;;;;;;;19.42;12.60;;;8.20;99.90;;;;;;5005006;28;20562;-74
2021/11/03 00:39:12;;;;;;;18.85;12.32;;;8.20;99.90;;;;;;5007046;28;20022;-73
2021/11/03 00:41:38;;;;;;;21.13;12.38;;;8.30;99.90;;;;;;5006772;28;20029;-73
2021/11/03 00:44:04;;;;;;;19.08;12.35;;;8.30;99.90;;;;;;5008971;28;20088;-74
2021/11/03 00:46:29;;;;;;;18.30;11.77;;;8.30;99.90;;;;;;5013717;28;20026;-73
2021/11/03 00:48:55;;;;;;;17.35;11.43;;;8.20;99.90;;;;;;4996612;28;20045;-74
2021/11/03 00:51:21;;;;;;;16.60;11.52;;;8.30;99.90;;;;;;5011866;28;20026;-73
2021/11/03 00:53:46;;;;;;;17.67;12.68;;;8.30;99.90;;;;;;4998221;28;20026;-73
2021/11/03 00:56:12;;;;;;;18.88;12.10;;;8.20;99.90;;;;;;5015264;28;20364;-74
2021/11/03 00:58:38;;;;;;;17.35;11.73;;;8.20;99.90;;;;;;5000034;28;20022;-74
2021/11/03 01:01:04;;;;;;;16.90;11.75;;;8.20;99.90;;;;;;5011288;28;20034;-73
2021/11/03 01:03:29;;;;;;;19.58;12.02;;;8.20;99.90;;;;;;5007336;28;20050;-74
2021/11/03 01:05:55;;;;;;;15.48;11.00;;;8.20;99.90;;;;;;5014469;28;20017;-73
2021/11/03 01:08:22;;;;;;;19.27;11.43;;;8.20;99.90;;;;;;5012728;28;20037;-74
2021/11/03 01:10:50;;;;;;;17.75;11.80;;;8.20;99.90;;;;;;4999537;28;20416;-73
2021/11/03 01:13:18;;;;;;;16.13;11.35;;;8.20;99.90;;;;;;4993772;28;20430;-74
2021/11/03 01:15:45;;;;;;;18.15;11.55;;;8.10;99.90;;;;;;5005011;28;20045;-73
2021/11/03 01:18:11;;;;;;;16.65;10.90;;;8.10;99.90;;;;;;5000569;28;20026;-73
2021/11/03 01:20:37;;;;;;;18.45;11.27;;;8.10;99.90;;;;;;5002864;28;20054;-73
2021/11/03 01:23:04;;;;;;;20.08;11.93;;;8.00;99.90;;;;;;4993714;28;20025;-74
2021/11/03 01:25:30;;;;;;;19.15;12.07;;;8.00;99.90;;;;;;5005608;28;20030;-74
2021/11/03 01:27:56;;;;;;;18.33;11.55;;;8.10;99.90;;;;;;5007687;28;20026;-73
2021/11/03 01:30:24;;;;;;;16.95;11.40;;;8.10;99.90;;;;;;5006730;28;20018;-73
2021/11/03 01:32:51;;;;;;;17.90;11.50;;;8.10;99.90;;;;;;5015724;28;20021;-73
2021/11/03 01:35:17;;;;;;;18.08;11.52;;;8.10;99.90;;;;;;5007733;28;20018;-73
2021/11/03 01:37:44;;;;;;;15.65;11.00;;;8.10;99.90;;;;;;5010573;28;20105;-73
2021/11/03 01:40:14;;;;;;;18.30;11.27;;;8.20;99.90;;;;;;5016473;28;20040;-73
2021/11/03 01:42:40;;;;;;;20.63;10.93;;;8.20;99.90;;;;;;5002999;28;20067;-73
2021/11/03 01:45:09;;;;;;;18.13;11.82;;;8.20;99.90;;;;;;5002875;28;20022;-73
2021/11/03 01:47:41;;;;;;;17.70;11.77;;;8.30;99.90;;;;;;5004963;28;20026;-73
2021/11/03 01:50:21;;;;;;;18.13;11.45;;;8.30;99.90;;;;;;5011280;28;20057;-73
2021/11/03 01:52:50;;;;;;;15.27;10.75;;;8.30;99.90;;;;;;5001227;28;20076;-74
2021/11/03 01:55:17;;;;;;;17.17;10.98;;;8.30;99.90;;;;;;5014202;28;20030;-73
2021/11/03 01:57:48;;;;;;;17.00;10.63;;;8.40;99.90;;;;;;5010990;28;20026;-73
2021/11/03 02:00:27;;;;;;;20.75;11.85;;;8.40;99.90;;;;;;4997995;28;20037;-73
2021/11/03 02:02:59;;;;;;;17.08;10.68;;;8.40;99.90;;;;;;5015329;28;20265;-73
2021/11/03 02:05:25;;;;;;;15.35;10.10;;;8.40;99.90;;;;;;5005985;28;20058;-73
2021/11/03 02:07:53;;;;;;;15.40;10.77;;;8.50;99.90;;;;;;5013705;28;20404;-73
2021/11/03 02:10:19;;;;;;;15.20;10.13;;;8.40;99.90;;;;;;5012042;28;20019;-74
2021/11/03 02:12:45;;;;;;;14.30;10.90;;;8.50;99.90;;;;;;5006770;28;20018;-74
2021/11/03 02:15:13;;;;;;;15.43;10.18;;;8.40;99.90;;;;;;5012671;28;20021;-74
2021/11/03 02:17:39;;;;;;;15.57;10.13;;;8.40;99.90;;;;;;5010902;28;20034;-73
2021/11/03 02:20:09;;;;;;;16.38;9.98;;;8.40;99.90;;;;;;5005908;28;20037;-73
2021/11/03 02:23:01;;;;;;;16.48;10.35;;;8.40;99.90;;;;;;4992918;28;20018;-74
2021/11/03 02:25:34;;;;;;;18.88;10.13;;;8.40;99.90;;;;;;4983285;28;20427;-74
2021/11/03 02:28:03;;;;;;;16.38;10.50;;;8.40;99.90;;;;;;5014610;28;20029;-73
2021/11/03 02:30:29;;;;;;;16.33;10.10;;;8.50;99.90;;;;;;5008350;28;20548;-73
2021/11/03 02:32:59;;;;;;;15.70;9.90;;;8.50;99.90;;;;;;5010919;28;20029;-74
2021/11/03 02:35:25;;;;;;;16.70;10.07;;;8.50;99.90;;;;;;5006384;28;20608;-73
2021/11/03 02:37:53;;;;;;;14.70;9.88;;;8.50;99.90;;;;;;5006624;28;20105;-73
2021/11/03 02:40:35;;;;;;;14.95;10.05;;;8.50;99.90;;;;;;5014301;28;20030;-75
2021/11/03 02:43:12;;;;;;;16.10;10.02;;;8.50;99.90;;;;;;5012218;28;20071;-73
2021/11/03 02:45:43;;;;;;;14.52;9.48;;;8.60;99.90;;;;;;5006706;28;20364;-73
2021/11/03 02:48:11;;;;;;;15.02;9.88;;;8.60;99.90;;;;;;5012548;28;20053;-73
2021/11/03 02:50:36;;;;;;;14.82;10.13;;;8.50;99.90;;;;;;5020820;28;20037;-73
2021/11/03 02:53:03;;;;;;;14.60;9.20;;;8.50;99.90;;;;;;5003885;28;20022;-74
2021/11/03 02:55:28;;;;;;;17.80;9.90;;;8.50;99.90;;;;;;5009996;28;20037;-74
2021/11/03 02:57:54;;;;;;;13.13;8.98;;;8.50;99.90;;;;;;5004768;28;20480;-74
2021/11/03 03:00:22;;;;;;;17.35;10.55;;;8.60;99.90;;;;;;5005271;28;20387;-74
2021/11/03 03:02:47;;;;;;;13.80;9.23;;;8.60;99.90;;;;;;4993279;28;20022;-74
2021/11/03 03:05:13;;;;;;;14.30;9.90;;;8.60;99.90;;;;;;5013370;28;20030;-73
2021/11/03 03:07:39;;;;;;;14.88;9.98;;;8.60;99.90;;;;;;5010522;28;20033;-74
2021/11/03 03:10:06;;;;;;;12.18;8.70;;;8.60;99.90;;;;;;5013762;28;20025;-73
2021/11/03 03:12:33;;;;;;;14.40;9.15;;;8.60;99.90;;;;;;5001865;28;20025;-74
2021/11/03 03:14:59;;;;;;;13.02;9.02;;;8.60;99.90;;;;;;5002019;28;20030;-74
2021/11/03 03:17:25;;;;;;;13.88;9.05;;;8.60;99.90;;;;;;5018730;28;20045;-73
2021/11/03 03:19:52;;;;;;;11.88;8.60;;;8.60;99.90;;;;;;4998172;28;20064;-73
2021/11/03 03:22:19;;;;;;;13.52;9.23;;;8.60;99.90;;;;;;5011969;28;20424;-73
2021/11/03 03:24:45;;;;;;;13.55;8.73;;;8.60;99.90;;;;;;4999249;28;20077;-73
2021/11/03 03:27:11;;;;;;;11.70;8.20;;;8.60;99.90;;;;;;5006410;28;20034;-73
2021/11/03 03:29:37;;;;;;;12.27;8.27;;;8.60;99.90;;;;;;4995612;28;20022;-74
2021/11/03 03:32:04;;;;;;;12.57;9.23;;;8.60;99.90;;;;;;5023657;28;20024;-73
2021/11/03 03:34:29;;;;;;;16.27;8.85;;;8.60;99.90;;;;;;5018635;28;20038;-73
2021/11/03 03:36:56;;;;;;;14.30;8.25;;;8.50;99.90;;;;;;5010414;28;20029;-73
2021/11/03 03:39:24;;;;;;;13.15;8.70;;;8.50;99.90;;;;;;5026174;28;20033;-72
2021/11/03 03:42:22;;;;;;;11.30;7.82;;;8.50;99.90;;;;;;4990217;28;20014;-73
2021/11/03 03:44:48;;;;;;;13.57;9.15;;;8.50;99.90;;;;;;4971491;28;20041;-72
2021/11/03 03:47:14;;;;;;;12.07;8.20;;;8.40;99.90;;;;;;5010799;28;20030;-73
2021/11/03 03:49:40;;;;;;;15.05;9.57;;;8.40;99.90;;;;;;5015778;28;20061;-73
2021/11/03 03:52:06;;;;;;;12.80;7.50;;;8.40;99.90;;;;;;5008022;28;20038;-73
2021/11/03 03:54:32;;;;;;;12.60;8.63;;;8.30;99.90;;;;;;5009816;28;20479;-73
2021/11/03 03:56:58;;;;;;;14.48;8.20;;;8.30;99.90;;;;;;5011259;28;20036;-74
2021/11/03 03:59:23;;;;;;;12.40;8.60;;;8.20;99.90;;;;;;5014802;28;20439;-72
2021/11/03 04:01:50;;;;;;;15.10;9.43;;;8.20;99.90;;;;;;4998717;28;20030;-74
2021/11/03 04:04:16;;;;;;;11.13;7.15;;;8.20;99.90;;;;;;4997212;28;20080;-74
2021/11/03 04:06:41;;;;;;;12.60;8.38;;;8.20;99.90;;;;;;4995060;28;20018;-73
2021/11/03 04:09:08;;;;;;;11.95;8.25;;;8.20;99.90;;;;;;5012929;28;20038;-74
2021/11/03 04:11:34;;;;;;;13.65;7.68;;;8.30;99.90;;;;;;5009465;28;20462;-75
2021/11/03 04:14:00;;;;;;;13.23;8.43;;;8.20;99.90;;;;;;5011562;28;20029;-74
2021/11/03 04:16:26;;;;;;;12.13;8.07;;;8.20;99.90;;;;;;5016908;28;20022;-74
2021/11/03 04:18:51;;;;;;;12.10;8.35;;;8.10;99.90;;;;;;5019188;28;20311;-74
2021/11/03 04:21:18;;;;;;;13.40;8.45;;;8.10;99.90;;;;;;5006901;28;20503;-74
2021/11/03 04:23:46;;;;;;;15.45;8.55;;;8.20;99.90;;;;;;4994136;28;20033;-75
2021/11/03 04:26:31;;;;;;;12.88;7.95;;;8.10;99.90;;;;;;5008576;28;20029;-74
2021/11/03 04:28:56;;;;;;;13.95;7.95;;;8.10;99.90;;;;;;5022469;28;20037;-75
2021/11/03 04:31:22;;;;;;;12.05;8.07;;;8.20;99.90;;;;;;5008892;28;20075;-74
2021/11/03 04:33:51;;;;;;;11.02;7.18;;;8.10;99.90;;;;;;5009564;28;20026;-75
2021/11/03 04:36:19;;;;;;;12.23;8.10;;;8.10;99.90;;;;;;5009596;28;20070;-74
2021/11/03 04:38:46;;;;;;;11.60;7.90;;;8.20;99.90;;;;;;5014772;28;20022;-74
2021/11/03 04:41:12;;;;;;;12.40;7.75;;;8.10;99.90;;;;;;5017140;28;20028;-74
2021/11/03 04:43:37;;;;;;;13.02;7.88;;;8.20;99.90;;;;;;5000925;28;20022;-75
2021/11/03 04:46:03;;;;;;;13.43;8.45;;;8.20;99.90;;;;;;4990911;28;20025;-75
2021/11/03 04:48:29;;;;;;;12.52;8.50;;;8.20;99.90;;;;;;5012480;28;20033;-74
2021/11/03 04:50:54;;;;;;;13.75;8.32;;;8.20;99.90;;;;;;5002628;28;20021;-74
2021/11/03 04:53:22;;;;;;;11.60;8.68;;;8.20;99.90;;;;;;5008457;28;20034;-74
2021/11/03 04:55:48;;;;;;;12.95;8.52;;;8.20;99.90;;;;;;5004255;28;20038;-75
2021/11/03 04:58:14;;;;;;;13.73;8.75;;;8.10;99.90;;;;;;5018126;28;20033;-71
2021/11/03 05:00:42;;;;;;;12.45;8.50;;;8.10;99.90;;;;;;5014163;28;20030;-75
2021/11/03 05:03:07;;;;;;;13.23;8.70;;;8.10;99.90;;;;;;5013236;28;20026;-74
2021/11/03 05:05:35;;;;;;;15.27;8.98;;;8.00;99.90;;;;;;5016867;28;20407;-74
2021/11/03 05:08:00;;;;;;;13.23;8.88;;;7.90;99.90;;;;;;5003144;28;20022;-72
2021/11/03 05:10:26;;;;;;;15.00;9.32;;;7.90;99.90;;;;;;5020643;28;20013;-75
2021/11/03 05:12:52;;;;;;;13.52;8.48;;;7.90;99.90;;;;;;5011447;28;20029;-75
2021/11/03 05:15:18;;;;;;;12.35;8.40;;;7.90;99.90;;;;;;4992461;28;20471;-75
2021/11/03 05:17:43;;;;;;;11.20;8.43;;;7.90;99.90;;;;;;5003459;28;20044;-74
2021/11/03 05:20:10;;;;;;;14.10;9.07;;;8.00;99.90;;;;;;5010150;28;20438;-74
2021/11/03 05:22:37;;;;;;;11.75;8.05;;;8.00;99.90;;;;;;4999431;28;20068;-75
2021/11/03 05:25:03;;;;;;;14.50;8.68;;;8.00;99.90;;;;;;4988829;28;20540;-75
2021/11/03 05:27:29;;;;;;;13.85;8.45;;;8.00;99.90;;;;;;5012202;28;20026;-75
2021/11/03 05:29:57;;;;;;;14.40;9.40;;;8.00;99.90;;;;;;5011643;28;20041;-75
2021/11/03 05:32:23;;;;;;;13.25;8.23;;;8.00;99.90;;;;;;5007524;28;20089;-75
2021/11/03 05:34:50;;;;;;;14.95;9.40;;;8.00;99.90;;;;;;5010337;28;20204;-74
2021/11/03 05:37:17;;;;;;;14.35;9.02;;;8.00;99.90;;;;;;4995777;28;20539;-74
2021/11/03 05:39:44;;;;;;;14.85;8.85;;;8.10;99.90;;;;;;5008142;28;20120;-74
2021/11/03 05:42:10;;;;;;;12.90;8.23;;;8.10;99.90;;;;;;5011290;28;20100;-75
2021/11/03 05:44:35;;;;;;;14.50;9.00;;;8.10;99.90;;;;;;4996940;28;20206;-75
2021/11/03 05:47:01;;;;;;;12.63;9.05;;;8.10;99.90;;;;;;5012182;28;20096;-74
2021/11/03 05:49:31;;;;;;;14.77;9.70;;;8.10;99.90;;;;;;4985152;28;20104;-75
2021/11/03 05:51:58;;;;;;;16.10;9.70;;;8.10;99.90;;;;;;5007163;28;20711;-74
2021/11/03 05:54:27;;;;;;;15.30;9.80;;;8.00;99.90;;;;;;5001267;28;20053;-75
2021/11/03 05:56:55;;;;;;;16.15;9.25;;;8.00;99.90;;;;;;5005435;28;20029;-75
2021/11/03 05:59:22;;;;;;;16.25;9.57;;;8.00;99.90;;;;;;5006569;28;20092;-75
2021/11/03 06:01:48;;;;;;;15.98;9.85;;;8.00;99.90;;;;;;5008917;28;20026;-74
2021/11/03 06:04:14;;;;;;;14.27;9.30;;;7.90;99.90;;;;;;5002495;28;20022;-75
2021/11/03 06:06:39;;;;;;;17.48;10.63;;;7.90;99.90;;;;;;5003389;28;20057;-75
2021/11/03 06:09:08;;;;;;;18.77;9.85;;;7.90;99.90;;;;;;4993991;28;20037;-75
2021/11/03 06:11:39;;;;;;;16.50;10.15;;;7.90;99.90;;;;;;5006256;28;20432;-75
2021/11/03 06:14:05;;;;;;;17.85;10.52;;;7.90;99.90;;;;;;5007130;28;20034;-74
2021/11/03 06:16:31;;;;;;;16.45;9.93;;;7.80;99.90;;;;;;5005681;28;20022;-75
2021/11/03 06:18:57;;;;;;;17.73;11.18;;;8.00;99.90;;;;;;5007491;28;20065;-74
2021/11/03 06:21:23;;;;;;;19.08;11.45;;;8.10;99.90;;;;;;5008444;28;20388;-74
2021/11/03 06:23:49;;;;;;;16.73;11.07;;;8.00;99.90;;;;;;5009429;28;20032;-75
2021/11/03 06:26:18;;;;;;;19.17;11.35;;;7.90;99.90;;;;;;4997109;28;20368;-74
2021/11/03 06:28:44;;;;;;;16.73;11.13;;;7.90;99.90;;;;;;5007906;28;20128;-75
2021/11/03 06:31:10;;;;;;;15.60;9.98;;;7.80;99.90;;;;;;5013936;28;20498;-75
2021/11/03 06:33:36;;;;;;;18.17;10.38;;;7.80;99.90;;;;;;5017086;28;20026;-75
2021/11/03 06:36:05;;;;;;;19.95;11.38;;;7.70;99.90;;;;;;5005461;28;20103;-74
2021/11/03 06:38:31;;;;;;;18.63;10.52;;;7.90;99.90;;;;;;5021166;28;20488;-74
2021/11/03 06:40:58;;;;;;;16.00;10.45;;;8.00;99.90;;;;;;5018430;28;20034;-73
2021/11/03 06:43:24;;;;;;;14.68;10.20;;;8.00;99.90;;;;;;5014516;28;20050;-74
2021/11/03 06:45:50;;;;;;;17.02;10.27;;;8.10;99.90;;;;;;5009339;28;20088;-75
2021/11/03 06:48:16;;;;;;;16.77;10.95;;;8.00;99.90;;;;;;4992886;28;20051;-75
2021/11/03 06:50:42;;;;;;;15.30;10.35;;;8.00;99.90;;;;;;5009687;28;20029;-75
2021/11/03 06:53:11;;;;;;;16.00;10.80;;;7.90;99.90;;;;;;5012310;28;20095;-74
2021/11/03 06:55:40;;;;;;;14.77;10.77;;;7.80;99.90;;;;;;5022754;28;20109;-74
2021/11/03 06:58:09;;;;;;;18.08;10.77;;;7.80;99.90;;;;;;5010951;28;20057;-73
2021/11/03 07:00:42;;;;;;;16.83;11.48;;;7.70;99.90;;;;;;5019555;28;20079;-73
2021/11/03 07:03:08;;;;;;;19.92;11.15;;;7.70;99.90;;;;;;5024009;28;20084;-74
2021/11/03 07:05:36;;;;;;;15.43;10.13;;;7.70;99.90;;;;;;5025287;28;20030;-74
2021/11/03 07:08:02;;;;;;;16.33;10.85;;;7.70;99.90;;;;;;5032178;28;20025;-74
2021/11/03 07:10:36;;;;;;;17.08;11.10;;;7.70;99.90;;;;;;5023630;28;20117;-74
2021/11/03 07:13:02;;;;;;;17.70;11.30;;;7.70;99.90;;;;;;5016281;28;20033;-73
2021/11/03 07:15:31;;;;;;;21.08;12.48;;;7.70;99.90;;;;;;5015180;28;20072;-75
2021/11/03 07:17:57;;;;;;;19.25;11.50;;;7.70;99.90;;;;;;5019845;28;20100;-75
2021/11/03 07:20:23;;;;;;;22.38;11.77;;;7.70;99.90;;;;;;5026754;28;20093;-74
2021/11/03 07:22:50;;;;;;;19.80;11.88;;;7.70;99.90;;;;;;5017274;28;20033;-74
2021/11/03 07:25:19;;;;;;;23.08;12.90;;;7.70;99.90;;;;;;5018612;28;20025;-75
2021/11/03 07:27:47;;;;;;;19.58;12.63;;;7.60;99.90;;;;;;5025847;28;20020;-74
2021/11/03 07:30:14;;;;;;;25.85;12.85;;;7.60;99.90;;;;;;5008679;28;20606;-74
2021/11/03 07:32:42;;;;;;;22.15;13.60;;;7.60;99.90;;;;;;5016664;28;20037;-74
2021/11/03 07:35:08;;;;;;;26.42;14.40;;;7.60;99.90;;;;;;5000684;28;20052;-74
2021/11/03 07:37:37;;;;;;;23.63;13.68;;;7.60;99.90;;;;;;4999154;28;20042;-74
2021/11/03 07:40:06;;;;;;;25.60;14.23;;;7.60;99.90;;;;;;5014499;28;20057;-75
2021/11/03 07:42:32;;;;;;;27.83;15.57;;;7.60;99.90;;;;;;5009321;28;20076;-73
2021/11/03 07:44:58;;;;;;;25.30;14.77;;;7.60;99.90;;;;;;4992095;28;20568;-74
2021/11/03 07:47:23;;;;;;;24.17;14.77;;;7.60;99.90;;;;;;5007832;28;20408;-74
2021/11/03 07:49:49;;;;;;;29.17;15.57;;;7.60;99.90;;;;;;5017588;28;20021;-74
2021/11/03 07:52:15;;;;;;;27.75;14.80;;;7.70;99.90;;;;;;5016840;28;20037;-74
2021/11/03 07:54:42;;;;;;;30.42;16.23;;;7.70;99.90;;;;;;5001830;28;20025;-73
2021/11/03 07:57:08;;;;;;;29.35;14.32;;;7.60;99.90;;;;;;5016871;28;20034;-73
2021/11/03 07:59:34;;;;;;;28.92;16.20;;;7.70;99.90;;;;;;5006493;28;20037;-73
2021/11/03 08:02:00;;;;;;;27.98;16.05;;;7.70;99.90;;;;;;5010733;28;20358;-73
2021/11/03 08:04:26;;;;;;;30.85;16.85;;;7.60;99.90;;;;;;5017512;28;20056;-73
2021/11/03 08:06:52;;;;;;;30.33;16.17;;;7.70;99.90;;;;;;5018197;28;20026;-73
2021/11/03 08:09:18;;;;;;;29.83;15.88;;;7.70;99.90;;;;;;5012213;28;20030;-73
2021/11/03 08:11:50;;;;;;;45.25;15.65;;;7.70;99.90;;;;;;5016022;28;20040;-73
2021/11/03 08:14:19;;;;;;;29.38;15.50;;;7.70;99.90;;;;;;5022570;28;20033;-73
2021/11/03 08:16:58;;;;;;;28.08;15.98;;;7.80;99.90;;;;;;5012656;28;20053;-74
2021/11/03 08:19:43;;;;;;;30.27;15.57;;;7.80;99.90;;;;;;5009105;28;20033;-73
2021/11/03 08:22:13;;;;;;;37.25;17.80;;;7.80;99.90;;;;;;5007444;28;21669;-73
2021/11/03 08:24:39;;;;;;;32.42;17.65;;;7.80;99.90;;;;;;5012728;28;20076;-73
2021/11/03 08:27:07;;;;;;;28.27;16.38;;;7.70;99.90;;;;;;5020953;28;20159;-73
2021/11/03 08:29:35;;;;;;;29.42;16.77;;;7.70;99.90;;;;;;4989568;28;20061;-73
2021/11/03 08:32:01;;;;;;;29.30;16.17;;;7.80;99.90;;;;;;5023005;28;20047;-73
2021/11/03 08:34:31;;;;;;;27.95;15.60;;;7.80;99.90;;;;;;5018157;28;20480;-73
2021/11/03 08:37:11;;;;;;;29.38;16.15;;;8.00;99.90;;;;;;5023912;28;20389;-73
2021/11/03 08:39:41;;;;;;;27.08;14.52;;;8.10;99.90;;;;;;5021419;28;20053;-73
2021/11/03 08:42:08;;;;;;;28.20;15.73;;;8.10;99.90;;;;;;5004693;28;20032;-73
2021/11/03 08:44:35;;;;;;;28.83;15.38;;;8.20;99.90;;;;;;4989649;28;20018;-73
2021/11/03 08:47:03;;;;;;;36.55;19.02;;;8.30;99.90;;;;;;5018112;28;20418;-73
2021/11/03 08:49:30;;;;;;;31.50;17.52;;;8.30;99.90;;;;;;5009976;28;20057;-73
2021/11/03 08:51:57;;;;;;;38.85;18.90;;;8.30;99.90;;;;;;5004721;28;20026;-73
2021/11/03 08:54:22;;;;;;;41.13;20.30;;;8.30;99.90;;;;;;5001655;28;20690;-74
2021/11/03 08:56:48;;;;;;;39.78;20.38;;;8.40;99.90;;;;;;5022590;28;20033;-74
2021/11/03 08:59:14;;;;;;;42.75;22.88;;;8.40;99.90;;;;;;4999928;28;20512;-74
2021/11/03 09:01:40;;;;;;;45.10;22.83;;;8.50;99.90;;;;;;5005040;28;20378;-73
2021/11/03 09:04:06;;;;;;;41.40;21.90;;;8.50;99.90;;;;;;5005656;28;20096;-74
2021/11/03 09:06:33;;;;;;;45.78;23.13;;;8.40;99.90;;;;;;4988624;28;20022;-73
2021/11/03 09:08:59;;;;;;;43.80;22.77;;;8.40;99.90;;;;;;5014253;28;20574;-73
2021/11/03 09:11:27;;;;;;;47.25;22.73;;;8.40;99.90;;;;;;5000682;28;20087;-73
2021/11/03 09:13:53;;;;;;;48.55;24.83;;;8.30;99.90;;;;;;5011830;28;20018;-74
2021/11/03 09:16:20;;;;;;;50.65;24.88;;;8.30;99.90;;;;;;5002231;28;20029;-73
2021/11/03 09:18:47;;;;;;;45.33;23.40;;;8.40;99.90;;;;;;5008123;28;20072;-74
2021/11/03 09:21:14;;;;;;;52.40;25.45;;;8.40;99.90;;;;;;5003327;28;20026;-74
2021/11/03 09:23:40;;;;;;;41.42;20.92;;;8.30;99.90;;;;;;5019371;28;20030;-74
2021/11/03 09:26:06;;;;;;;48.13;23.48;;;8.40;99.90;;;;;;5015903;28;20125;-73
2021/11/03 09:28:34;;;;;;;44.78;22.55;;;8.40;99.90;;;;;;4988881;28;20405;-73
2021/11/03 09:31:03;;;;;;;50.72;24.25;;;8.50;99.90;;;;;;5018740;28;20080;-73
2021/11/03 09:33:29;;;;;;;50.30;24.50;;;8.40;99.90;;;;;;5002871;28;20129;-74
2021/11/03 09:35:55;;;;;;;41.53;21.85;;;8.40;99.90;;;;;;5013301;28;20515;-74
2021/11/03 09:38:26;;;;;;;41.72;21.13;;;8.50;99.90;;;;;;5008990;28;20034;-74
2021/11/03 09:40:53;;;;;;;38.42;20.50;;;8.50;99.90;;;;;;5009278;28;20076;-74
2021/11/03 09:43:31;;;;;;;39.45;21.00;;;8.70;99.90;;;;;;5015509;28;20021;-74
2021/11/03 09:46:00;;;;;;;39.47;21.95;;;8.70;99.90;;;;;;5001453;28;20076;-74
2021/11/03 09:48:27;;;;;;;44.47;22.45;;;8.80;99.90;;;;;;4993140;28;20508;-74
2021/11/03 09:50:57;;;;;;;39.53;21.75;;;8.80;99.90;;;;;;5004285;28;20556;-74
2021/11/03 09:53:36;;;;;;;40.05;20.60;;;8.70;99.90;;;;;;5001466;28;20034;-72
2021/11/03 09:56:03;;;;;;;40.63;20.38;;;8.70;99.90;;;;;;5007046;28;20080;-72
2021/11/03 09:58:43;;;;;;;39.90;20.73;;;8.70;99.90;;;;;;5003863;28;20026;-72
2021/11/03 10:01:25;;;;;;;46.03;22.92;;;8.80;99.90;;;;;;5004104;28;20029;-72
2021/11/03 10:04:07;;;;;;;43.25;22.05;;;8.80;99.90;;;;;;5002185;28;20018;-73
2021/11/03 10:06:51;;;;;;;40.25;20.77;;;8.80;99.90;;;;;;4998763;28;20022;-73
2021/11/03 10:09:17;;;;;;;46.78;22.73;;;8.80;99.90;;;;;;5016168;28;20029;-74
2021/11/03 10:11:52;;;;;;;45.58;22.70;;;8.80;99.90;;;;;;5011312;28;20017;-73
2021/11/03 10:14:19;;;;;;;41.00;22.33;;;8.70;99.90;;;;;;5004356;28;20045;-73
2021/11/03 10:16:56;;;;;;;43.50;22.38;;;8.80;99.90;;;;;;4992466;28;20076;-73
2021/11/03 10:19:27;;;;;;;40.10;20.90;;;8.70;99.90;;;;;;5011658;28;20034;-73
2021/11/03 10:21:54;;;;;;;38.47;19.73;;;8.90;99.90;;;;;;5008925;28;20022;-72
2021/11/03 10:24:25;;;;;;;44.00;21.30;;;9.00;99.90;;;;;;5010905;28;20535;-73
2021/11/03 10:26:54;;;;;;;;;;;9.00;99.90;;;;;;5017920;28;20029;-72
2021/11/03 10:29:29;;;;;;;38.03;19.60;;;9.10;99.90;;;;;;5014205;28;19913;-73
2021/11/03 10:32:00;;;;;;;37.95;19.40;;;9.20;99.90;;;;;;5014280;28;20702;-73
2021/11/03 10:34:28;;;;;;;37.72;19.10;;;9.20;99.90;;;;;;5005441;28;20029;-73
2021/11/03 10:37:00;;;;;;;35.78;19.55;;;9.20;99.90;;;;;;5001927;28;20068;-72
2021/11/03 10:39:27;;;;;;;42.60;20.65;;;9.20;99.90;;;;;;5009225;28;20119;-73
2021/11/03 10:42:01;;;;;;;39.72;21.15;;;9.10;99.90;;;;;;4984769;28;20022;-73
2021/11/03 10:44:31;;;;;;;36.28;19.45;;;9.00;99.90;;;;;;5011415;28;20045;-72
2021/11/03 10:47:12;;;;;;;45.55;20.83;;;9.00;99.90;;;;;;5010143;28;20076;-73
2021/11/03 10:49:58;;;;;;;36.40;19.25;;;9.00;99.90;;;;;;5016316;28;20036;-72
2021/11/03 10:52:33;;;;;;;38.45;20.05;;;9.30;99.90;;;;;;4982534;28;20026;-72
2021/11/03 10:55:15;;;;;;;38.45;19.63;;;9.70;99.90;;;;;;4986806;28;20978;-73
2021/11/03 10:57:48;;;;;;;28.85;16.80;;;9.90;99.90;;;;;;5000902;28;20046;-73
2021/11/03 11:00:25;;;;;;;35.85;19.27;;;10.20;99.90;;;;;;5001198;28;20444;-73
2021/11/03 11:03:00;;;;;;;30.25;17.38;;;10.20;99.90;;;;;;5008078;28;20492;-73
2021/11/03 11:05:28;;;;;;;30.98;17.08;;;10.40;99.90;;;;;;5006718;28;20072;-73
2021/11/03 11:08:00;;;;;;;31.27;16.45;;;10.50;99.90;;;;;;4987884;28;20494;-73
2021/11/03 11:10:44;;;;;;;29.77;17.00;;;10.70;99.90;;;;;;5012582;28;20061;-73
2021/11/03 11:13:21;;;;;;;27.75;15.85;;;10.80;99.90;;;;;;5007772;28;20175;-73
2021/11/03 11:16:17;;;;;;;30.30;16.33;;;10.70;99.90;;;;;;5007111;28;20389;-73
2021/11/03 11:18:56;;;;;;;28.95;15.50;;;10.70;99.90;;;;;;5017568;28;20060;-73
2021/11/03 11:22:10;;;;;;;30.30;15.50;;;10.70;99.90;;;;;;5012463;28;20603;-73
2021/11/03 11:24:53;;;;;;;27.60;15.25;;;10.80;99.90;;;;;;5011111;28;20049;-73
2021/11/03 11:27:29;;;;;;;20.75;12.77;;;10.90;99.80;;;;;;5020252;28;20022;-73
2021/11/03 11:30:23;;;;;;;22.10;12.38;;;10.90;99.90;;;;;;5018722;28;20502;-73
2021/11/03 11:33:16;;;;;;;23.52;14.50;;;10.90;99.80;;;;;;5019002;28;20034;-73
2021/11/03 11:36:28;;;;;;;22.35;12.85;;;10.90;99.50;;;;;;5014640;28;20501;-74
2021/11/03 11:39:29;;;;;;;23.33;13.05;;;11.00;99.90;;;;;;4974981;28;20116;-73
2021/11/03 11:42:14;;;;;;;23.15;14.25;;;10.90;99.10;;;;;;4978753;28;20373;-73
2021/11/03 11:44:57;;;;;;;22.10;12.50;;;10.90;99.10;;;;;;4986947;28;20030;-73
2021/11/03 11:47:37;;;;;;;21.83;12.43;;;10.90;99.30;;;;;;5007164;28;20052;-74
2021/11/03 11:50:23;;;;;;;22.65;12.75;;;10.80;99.40;;;;;;5000943;28;20042;-74
2021/11/03 11:52:49;;;;;;;19.63;12.65;;;10.70;99.50;;;;;;4994836;28;20095;-74
2021/11/03 11:55:15;;;;;;;28.17;16.42;;;10.60;99.90;;;;;;5016439;28;20029;-73
2021/11/03 11:57:43;;;;;;;30.40;17.63;;;10.60;99.90;;;;;;5009022;28;20023;-74
2021/11/03 12:00:09;;;;;;;31.88;17.85;;;10.50;99.90;;;;;;5000933;28;20025;-73
2021/11/03 12:02:46;;;;;;;27.92;17.08;;;10.30;99.90;;;;;;4991495;28;20026;-74
2021/11/03 12:05:27;;;;;;;27.08;16.33;;;10.20;99.90;;;;;;4983370;28;20476;-74
2021/11/03 12:08:11;;;;;;;25.48;15.35;;;10.20;99.90;;;;;;5020498;28;20463;-74
2021/11/03 12:10:38;;;;;;;24.63;15.20;;;10.30;99.90;;;;;;5019706;28;20049;-73
2021/11/03 12:13:04;;;;;;;26.23;15.38;;;10.20;99.90;;;;;;5020565;28;20450;-74
2021/11/03 12:15:45;;;;;;;22.83;14.05;;;10.30;99.90;;;;;;5013283;28;20030;-74
2021/11/03 12:18:29;;;;;;;22.63;14.63;;;10.30;99.90;;;;;;5012108;28;20026;-74
2021/11/03 12:20:57;;;;;;;23.85;14.57;;;10.40;99.90;;;;;;5016096;28;20101;-73
2021/11/03 12:23:40;;;;;;;26.15;15.20;;;10.40;99.90;;;;;;5011501;28;20026;-73
2021/11/03 12:26:30;;;;;;;28.33;16.73;;;10.40;99.90;;;;;;5014014;28;20023;-73
2021/11/03 12:29:00;;;;;;;27.25;15.40;;;10.30;99.90;;;;;;5001746;28;20029;-74
2021/11/03 12:31:52;;;;;;;24.45;14.20;;;10.20;99.90;;;;;;5001785;28;20075;-74
2021/11/03 12:34:25;;;;;;;29.75;16.95;;;10.30;99.90;;;;;;5008997;28;20041;-74
2021/11/03 12:37:06;;;;;;;22.48;14.13;;;10.30;99.90;;;;;;5012770;28;20539;-74
2021/11/03 12:39:32;;;;;;;24.77;13.68;;;10.30;99.90;;;;;;5011706;28;20026;-74
2021/11/03 12:42:02;;;;;;;434.38;275.92;;;10.40;99.90;;;;;;5008834;28;20022;-73
2021/11/03 12:44:36;;;;;;;371.40;192.77;;;10.30;99.90;;;;;;5001505;28;20467;-74
2021/11/03 12:47:14;;;;;;;339.83;179.38;;;10.40;99.90;;;;;;5019342;28;20026;-74
2021/11/03 12:49:40;;;;;;;565.05;348.83;;;10.40;99.90;;;;;;5009338;28;20037;-74